Stations météo

Publicité
Chateau Chinon, France (7270): Température de l'air & dewpoint: 15.10.2019 07:00:00 - 21.10.2019 07:00:00 (CEST)Chateau Chinon, France (7270): Vitesse du vent & gusts: 15.10.2019 07:00:00 - 21.10.2019 07:00:00 (CEST)Chateau Chinon, France (7270): Direction du vent: 15.10.2019 07:00:00 - 21.10.2019 07:00:00 (CEST)Chateau Chinon, France (7270): Quantités de précipitations: 15.10.2019 07:00:00 - 21.10.2019 07:00:00 (CEST)
Date & Time tt [°C] td [°C] ff [km/h] ff [knt] fx [km/h] fx [knt] dd rr [mm]
21.10.2019 07:00:00 - - - - - - - -
21.10.2019 06:00:00 8,9 8,8 4 2 24 13 N 0,0
21.10.2019 05:00:00 9,2 9,1 5 3 29 16 W 0,0
21.10.2019 04:00:00 9,9 9,6 5 3 44 24 NW 1,0
21.10.2019 03:00:00 11,2 10,1 18 10 42 23 SW 0,0
21.10.2019 02:00:00 11,3 10,4 13 7 34 18 SSW -
21.10.2019 01:00:00 11,2 10,1 11 6 37 20 SSW 0,2
21.10.2019 00:00:00 11,7 10,9 15 8 35 19 SW 0,8
20.10.2019 23:00:00 11,8 10,9 8 4 29 16 S 0,0
20.10.2019 22:00:00 12,4 12,2 5 3 26 14 SSE 0,0
20.10.2019 21:00:00 12,3 12,1 8 4 22 12 SE 1,0
20.10.2019 20:00:00 12,2 12,0 5 3 11 6 E -
20.10.2019 19:00:00 12,1 11,9 4 2 9 5 SE 2,0
20.10.2019 18:00:00 12,3 12,0 0 0 18 10 N 9,0
20.10.2019 17:00:00 12,9 12,0 8 4 34 18 NE 4,0
20.10.2019 16:00:00 16,3 12,6 15 8 48 26 SSW 0,4
20.10.2019 15:00:00 16,8 13,1 8 4 37 20 S 0,0
20.10.2019 14:00:00 13,8 12,7 4 2 16 9 NNW -
20.10.2019 13:00:00 13,8 12,7 4 2 11 6 WNW 0,0
20.10.2019 12:00:00 14,8 12,7 4 2 44 24 W 0,0
20.10.2019 11:00:00 16,7 12,2 13 7 68 37 SSE 0,0
20.10.2019 10:00:00 16,3 11,9 16 9 65 35 SSE 0,0
20.10.2019 09:00:00 15,9 11,1 15 8 57 31 SSE 0,0
20.10.2019 08:00:00 15,6 11,2 16 9 54 29 SSE -
20.10.2019 07:00:00 15,0 11,8 15 8 54 29 SSE 0,0
20.10.2019 06:00:00 11,3 11,1 8 4 31 17 E 0,0
20.10.2019 05:00:00 10,6 10,4 5 3 21 11 E 0,0
20.10.2019 04:00:00 10,5 10,3 5 3 15 8 E 0,0
20.10.2019 03:00:00 10,3 10,1 5 3 13 7 E 0,2
20.10.2019 02:00:00 10,4 10,2 4 2 16 9 E -
20.10.2019 01:00:00 10,5 10,3 4 2 18 10 NW 2,0
20.10.2019 00:00:00 10,7 10,1 5 3 21 11 SE 2,0
19.10.2019 23:00:00 11,0 10,2 8 4 16 9 ESE 0,0
19.10.2019 22:00:00 11,1 10,5 4 2 21 11 ESE 0,0
19.10.2019 21:00:00 11,1 10,5 8 4 21 11 ESE 0,0
19.10.2019 20:00:00 11,0 10,2 5 3 22 12 ESE -
19.10.2019 19:00:00 11,6 10,5 5 3 15 8 SE 0,0
19.10.2019 18:00:00 12,2 10,1 4 2 13 7 SSE 0,0
19.10.2019 17:00:00 12,5 10,4 4 2 21 11 WSW 0,2
19.10.2019 16:00:00 13,2 10,4 4 2 26 14 WSW 0,0
19.10.2019 15:00:00 12,7 10,4 5 3 34 18 W 0,2
19.10.2019 14:00:00 12,9 9,9 11 6 41 22 SW -
19.10.2019 13:00:00 12,3 10,4 16 9 42 23 SW 0,2
19.10.2019 12:00:00 13,0 10,0 13 7 39 21 SW 0,0
19.10.2019 11:00:00 12,5 9,5 15 8 48 26 SW 0,0
19.10.2019 10:00:00 11,2 9,6 18 10 42 23 SSW 0,2
19.10.2019 09:00:00 11,2 9,3 18 10 46 25 SSW 0,0
19.10.2019 08:00:00 11,8 9,4 21 11 42 23 SSW -
19.10.2019 07:00:00 11,8 9,0 9 5 34 18 WSW 0,0
19.10.2019 06:00:00 11,7 9,1 4 2 31 17 W 0,0
19.10.2019 05:00:00 11,8 9,2 11 6 41 22 SW 0,0
19.10.2019 04:00:00 11,6 9,7 11 6 24 13 SSW 0,2
19.10.2019 03:00:00 11,4 9,8 4 2 22 12 SW 0,0
19.10.2019 02:00:00 11,6 9,3 5 3 34 18 WSW -
19.10.2019 01:00:00 11,6 9,3 15 8 34 18 SW 0,0
19.10.2019 00:00:00 11,3 9,2 11 6 31 17 SSW 0,0
18.10.2019 23:00:00 11,3 9,6 9 5 31 17 SW 0,0
18.10.2019 22:00:00 11,6 9,5 11 6 29 16 SSW 0,0
18.10.2019 21:00:00 11,7 8,7 8 4 35 19 WSW 0,0
18.10.2019 20:00:00 11,5 9,2 8 4 22 12 SW -
18.10.2019 19:00:00 11,4 9,6 8 4 18 10 SW 0,0
18.10.2019 18:00:00 11,9 9,8 2 1 18 10 WNW 0,0
18.10.2019 17:00:00 13,0 9,3 4 2 34 18 W 0,0
18.10.2019 16:00:00 13,3 9,0 8 4 24 13 SW 0,0
18.10.2019 15:00:00 12,1 8,0 5 3 24 13 WSW 0,0
18.10.2019 14:00:00 10,6 9,2 4 2 29 16 W -
18.10.2019 13:00:00 12,0 9,4 5 3 39 21 NNE 0,0
18.10.2019 12:00:00 12,7 10,9 5 3 35 19 WNW 0,0
18.10.2019 11:00:00 12,1 11,2 5 3 42 23 WNW 0,0
18.10.2019 10:00:00 12,1 11,2 8 4 41 22 W 0,0
18.10.2019 09:00:00 11,4 10,9 8 4 39 21 W 0,2
18.10.2019 08:00:00 11,5 11,2 11 6 41 22 SW -
18.10.2019 07:00:00 11,9 10,8 13 7 42 23 SW 0,8
18.10.2019 06:00:00 12,2 10,6 18 10 41 22 SW 0,0
18.10.2019 05:00:00 12,1 10,8 15 8 48 26 SW 0,0
18.10.2019 04:00:00 11,5 10,9 16 9 37 20 SSW 2,0
18.10.2019 03:00:00 11,9 10,6 8 4 44 24 WSW 0,4
18.10.2019 02:00:00 12,8 10,2 22 12 50 27 SSW -
18.10.2019 01:00:00 12,4 10,3 15 8 39 21 SSW 0,0
18.10.2019 00:00:00 12,4 10,6 18 10 37 20 SSW 0,0
17.10.2019 23:00:00 12,2 10,9 16 9 39 21 SSW 0,0
17.10.2019 22:00:00 12,2 11,3 11 6 37 20 SW 0,0
17.10.2019 21:00:00 12,3 11,8 16 9 44 24 SW 0,0
17.10.2019 20:00:00 12,2 11,7 13 7 41 22 SSW -
17.10.2019 19:00:00 11,9 11,4 16 9 41 22 SSW 0,4
17.10.2019 18:00:00 11,8 11,5 15 8 41 22 SSW 1,0
17.10.2019 17:00:00 11,7 11,1 18 10 57 31 SSW 2,0
17.10.2019 16:00:00 11,7 11,2 13 7 42 23 SSW 2,0
17.10.2019 15:00:00 11,5 11,0 16 9 50 27 SSW 3,0
17.10.2019 14:00:00 11,5 10,9 16 9 46 25 SSW -
17.10.2019 13:00:00 11,1 10,6 18 10 44 24 SSW 1,0
17.10.2019 12:00:00 11,4 10,6 16 9 41 22 SSW 0,8
17.10.2019 11:00:00 11,9 10,0 18 10 39 21 SSW 0,0
17.10.2019 10:00:00 11,3 11,0 5 3 26 14 SSE 0,4
17.10.2019 09:00:00 10,6 10,1 8 4 29 16 SSE 2,0
17.10.2019 08:00:00 11,5 9,6 11 6 42 23 SSW -
17.10.2019 07:00:00 12,3 8,9 15 8 34 18 SSW 0,0
17.10.2019 06:00:00 12,2 9,4 9 5 34 18 SSW 0,0
17.10.2019 05:00:00 12,1 9,5 18 10 37 20 SSW 0,0
17.10.2019 04:00:00 11,3 10,4 15 8 35 19 SSW 0,0
17.10.2019 03:00:00 10,7 10,1 13 7 35 19 SSW 0,2
17.10.2019 02:00:00 10,5 10,2 15 8 35 19 SSW -
17.10.2019 01:00:00 10,8 10,0 8 4 57 31 WSW 2,0
17.10.2019 00:00:00 13,0 8,3 21 11 54 29 SW 0,0
16.10.2019 23:00:00 12,6 8,7 11 6 44 24 SW 0,0
16.10.2019 22:00:00 13,6 7,4 11 6 35 19 SW 0,0
16.10.2019 21:00:00 13,9 7,4 11 6 34 18 SW 0,0
16.10.2019 20:00:00 14,2 7,7 15 8 34 18 SW -
16.10.2019 19:00:00 14,1 7,6 11 6 29 16 SSW 0,0
16.10.2019 18:00:00 14,2 8,2 9 5 34 18 SSW 0,0
16.10.2019 17:00:00 16,0 7,7 13 7 35 19 SW 0,0
16.10.2019 16:00:00 15,5 7,5 13 7 37 20 SW 0,0
16.10.2019 15:00:00 16,8 9,0 11 6 39 21 SSW 0,0
16.10.2019 14:00:00 16,2 8,9 9 5 31 17 SSW -
16.10.2019 13:00:00 14,9 8,4 11 6 34 18 SSW 0,0
16.10.2019 12:00:00 13,1 7,7 11 6 39 21 SSW 0,0
16.10.2019 11:00:00 11,9 7,2 15 8 41 22 SSW 0,0
16.10.2019 10:00:00 10,4 6,7 13 7 37 20 SSW 0,0
16.10.2019 09:00:00 9,4 6,7 16 9 41 22 SSW 0,0
16.10.2019 08:00:00 9,3 6,7 18 10 41 22 SSW -
16.10.2019 07:00:00 9,4 7,2 18 10 41 22 SSW 0,0
16.10.2019 06:00:00 9,4 7,2 21 11 44 24 SSW 0,0
16.10.2019 05:00:00 9,4 7,2 18 10 42 23 SSW 0,0
16.10.2019 04:00:00 9,1 7,5 16 9 37 20 SSW 0,0
16.10.2019 03:00:00 9,0 7,6 15 8 35 19 SW 0,0
16.10.2019 02:00:00 8,8 7,6 9 5 34 18 SW -
16.10.2019 01:00:00 8,4 7,5 8 4 31 17 SW 0,0
16.10.2019 00:00:00 8,1 7,2 8 4 35 19 W 0,0
15.10.2019 23:00:00 8,7 7,6 8 4 35 19 WSW 0,0
15.10.2019 22:00:00 8,5 7,3 4 2 37 20 NW 0,0
15.10.2019 21:00:00 8,9 8,0 8 4 26 14 WSW 0,0
15.10.2019 20:00:00 8,3 7,9 4 2 29 16 N -
15.10.2019 19:00:00 8,4 8,0 2 1 22 12 NNW 0,0
15.10.2019 18:00:00 9,8 9,7 4 2 18 10 N 0,0
15.10.2019 17:00:00 9,8 9,7 4 2 18 10 N 0,6
15.10.2019 16:00:00 9,6 9,5 5 3 28 15 NNW 0,4
15.10.2019 15:00:00 9,5 9,4 4 2 29 16 NNW 2,0
15.10.2019 14:00:00 9,8 9,5 8 4 37 20 N -
15.10.2019 13:00:00 10,7 10,4 8 4 31 17 SW 0,2
15.10.2019 12:00:00 10,6 10,4 9 5 34 18 SW 0,4
15.10.2019 11:00:00 10,2 10,0 5 3 26 14 WSW 2,0
15.10.2019 10:00:00 10,1 9,9 8 4 28 15 SW 0,2
15.10.2019 09:00:00 10,1 9,9 5 3 26 14 WSW 0,0
15.10.2019 08:00:00 10,3 10,1 4 2 29 16 W -
15.10.2019 07:00:00 10,3 9,8 8 4 26 14 WSW 1,0

tt = Température de l'air
td = dewpoint
ff = Vitesse du vent
fx = gusts
dd = Direction du vent
rr = Quantités de précipitations

stations d'obs. à proximité